Gwinn, MI

2:20 AM EDT en Septiembre 23, 2014 (GMT -0400)
Sawyer International | Change Station
CLOSE
Current Station
Aeropuerto
Location: Gwinn,
Altura: 1220 ft
Estaciones meteorológicas cercanas

Alt 1220 ft 46.34 °N, 87.40 °W | Updated 23 minutes ago

Despejado
Despejado
50 ° F
Sensación térmica 50 ° F
N
0
Viento Variable Viento desde Norte

Hoy
Alta -- | Baja -- ° F
--% Posibilidad de precipitaciones
Ayer
Alta -- | Baja -- ° F
Precip. -- pul
7:37 AM 7:45 PM
Creciente menguante, 1% visible
Presión 30.14 pul
Visibilidad 10.0 Millas
Nubes Despejado
Punto de rocío 46 ° F
Humedad 87%
Precipitaciones 0.00 pul
Espesor de la nieve No disponible.
UV 0 de una escala de 12
Polen 3.70 de una escala de 12
Ozono Buena
PM2.5 Buena
Flu Activity No disponible.
METAR KSAW 230557Z AUTO 00000KT 10SM CLR 10/08 A3014 RMK AO2 T01010080

More Conditions Fewer Conditions

Presión 30.14 pul
Visibilidad 10.0 Millas
Nubes Despejado
Punto de rocío 46 ° F
Humedad 87%
Precipitaciones 0.00 pul
Espesor de la nieve No disponible.
UV 0 de una escala de 12
Polen 3.70 de una escala de 12
Ozono Buena
PM2.5 Buena
Flu Activity No disponible.
METAR KSAW 230557Z AUTO 00000KT 10SM CLR 10/08 A3014 RMK AO2 T01010080

More Conditions Fewer Conditions

10-Day Weather Forecast

Almanac

Astronomía

Sep. 23, 2014 Salida Puesta
Hora real 7:37 AM EDT 7:45 PM EDT
Crepúsculo civil 7:07 AM EDT 8:15 PM EDT
Crepúsculo náutico 6:32 AM EDT 8:50 PM EDT
Crepúsculo astronómico 5:56 AM EDT 9:26 PM EDT
Luna 7:01 AM EDT 7:22 PM EDT
Horas de luz 13h 07m
Horas de luz
12h 07m
Tomorrow will be 3m 16s shorter.
Creciente menguante, 1% of the Moon is Illuminated
Hoy
Creciente menguante
Sep 24
Nueva
Oct 1
Cuarto creciente
Oct 8
Luna llena
Oct 15
Cuarto menguante

Extremos de hoy

Máximos del estado Bajos del estado

Community

WunderPhotos

Upload Photos

1,755,608 ¡fotos cargadas!

Nearby

Calidad del aire

  Calidad del aire Índice AQ Contaminante
Ayer Buena
OZONE
Ayer Buena
PM2.5
Real Buena
PM2.5
Real Buena
OZONE
Martes Buena
OZONE
Martes Buena
PM2.5
Miércoles Buena
OZONE
Miércoles Buena
PM2.5
Jueves Buena
OZONE
Jueves Buena
PM2.5
Viernes Buena
OZONE
Viernes Buena
PM2.5
Sábado Buena
OZONE
Sábado Buena
PM2.5

Grosos de nieve

Estación Profundido Altura
No tenemos constancia de nieve nueva.

Actividad de terremotos

Ciudad Distance Mag. Tiempo y dato
No hay informes recientes de la actividad sísmica.
Magnitud mínima muestra es 2,5.

Temperaturas de aguas costeras

Lugar Temperatura
Port Inland, MI 61.0 ° F

Estaciones meteorológicas cercanas